Time;durP1;ratioP1;P1;durP2;ratioP2;P2;SDS_P1;SDS_P2;PMS_P1;PMS_P2;Temp;Humidity;BMP_temperature;BMP_pressure;BME280_temperature;BME280_humidity;BME280_pressure;Samples;Min_cycle;Max_cycle;Signal;HPM_P1;HPM_P2
2022/10/24 00:00:29;;;;;;;4.53;2.33;;;14.50;99.90;;;;;;5079013;28;20028;-77
2022/10/24 00:02:56;;;;;;;6.57;2.53;;;14.50;99.90;;;;;;5080503;28;20020;-77
2022/10/24 00:05:22;;;;;;;5.15;2.50;;;14.50;99.90;;;;;;5097893;28;20028;-77
2022/10/24 00:07:49;;;;;;;8.90;3.13;;;14.50;99.90;;;;;;5077845;28;20027;-77
2022/10/24 00:10:15;;;;;;;4.20;2.50;;;14.60;99.90;;;;;;5082301;28;20028;-77
2022/10/24 00:12:42;;;;;;;5.63;2.35;;;14.60;99.90;;;;;;5084128;28;20059;-77
2022/10/24 00:15:08;;;;;;;9.43;2.97;;;14.60;99.90;;;;;;5070365;28;20039;-78
2022/10/24 00:17:34;;;;;;;6.13;2.67;;;14.60;99.90;;;;;;5068919;28;20032;-77
2022/10/24 00:20:02;;;;;;;7.43;2.88;;;14.60;99.90;;;;;;5086769;28;20038;-77
2022/10/24 00:22:28;;;;;;;4.93;3.00;;;14.50;99.90;;;;;;5087041;28;20028;-77
2022/10/24 00:24:54;;;;;;;3.88;2.90;;;14.60;99.90;;;;;;5068521;28;20028;-78
2022/10/24 00:27:19;;;;;;;10.52;3.00;;;14.50;99.90;;;;;;5073325;28;20024;-77
2022/10/24 00:29:45;;;;;;;4.15;2.78;;;14.50;99.90;;;;;;5083597;28;20126;-78
2022/10/24 00:32:11;;;;;;;7.93;2.75;;;14.50;99.90;;;;;;5071748;28;20024;-78
2022/10/24 00:34:38;;;;;;;8.57;3.25;;;14.50;99.90;;;;;;5065471;28;20520;-78
2022/10/24 00:37:04;;;;;;;5.68;2.78;;;14.50;99.90;;;;;;5068084;28;20039;-77
2022/10/24 00:39:29;;;;;;;8.10;3.15;;;14.50;99.90;;;;;;5069034;28;20044;-77
2022/10/24 00:41:57;;;;;;;6.13;2.90;;;14.40;99.90;;;;;;5068800;28;20037;-76
2022/10/24 00:44:28;;;;;;;3.88;2.58;;;14.40;99.90;;;;;;5083413;28;20025;-76
2022/10/24 00:47:22;;;;;;;9.75;2.50;;;14.40;99.90;;;;;;5068878;28;20017;-77
2022/10/24 00:50:12;;;;;;;5.65;2.67;;;14.40;99.90;;;;;;5081218;28;20052;-76
2022/10/24 00:52:43;;;;;;;5.13;2.70;;;14.30;99.90;;;;;;5066929;28;20115;-77
2022/10/24 00:55:11;;;;;;;4.88;2.90;;;14.40;99.90;;;;;;5063139;28;20511;-76
2022/10/24 00:57:47;;;;;;;5.97;2.30;;;14.40;99.90;;;;;;5086037;28;20094;-77
2022/10/24 01:00:20;;;;;;;5.50;2.90;;;14.30;99.90;;;;;;5062841;28;20033;-76
2022/10/24 01:02:46;;;;;;;7.30;2.83;;;14.40;99.90;;;;;;5067972;28;20731;-76
2022/10/24 01:05:14;;;;;;;4.53;2.42;;;14.40;99.90;;;;;;5065317;28;20400;-76
2022/10/24 01:08:25;;;;;;;5.03;2.53;;;14.30;99.90;;;;;;5069861;28;20043;-77
2022/10/24 01:10:58;;;;;;;6.30;2.60;;;14.30;99.90;;;;;;5078630;28;20028;-77
2022/10/24 01:13:51;;;;;;;5.78;2.80;;;14.30;99.90;;;;;;5082729;28;20028;-76
2022/10/24 01:16:25;;;;;;;7.38;2.95;;;14.20;99.90;;;;;;5081099;28;20063;-77
2022/10/24 01:19:13;;;;;;;6.63;2.72;;;14.20;99.90;;;;;;5080904;28;20381;-76
2022/10/24 01:21:48;;;;;;;6.90;3.40;;;14.20;99.90;;;;;;5068399;28;20031;-78
2022/10/24 01:24:28;;;;;;;5.25;2.60;;;14.20;99.90;;;;;;5065161;28;20032;-76
2022/10/24 01:27:12;;;;;;;5.20;3.20;;;14.20;99.90;;;;;;5064182;28;20054;-76
2022/10/24 01:30:14;;;;;;;4.32;3.00;;;14.20;99.90;;;;;;5061757;28;20028;-75
2022/10/24 01:32:58;;;;;;;4.57;3.00;;;14.20;99.90;;;;;;5098637;28;20025;-77
2022/10/24 01:35:41;;;;;;;7.20;3.17;;;14.10;99.90;;;;;;5082542;28;20041;-76
2022/10/24 01:38:34;;;;;;;5.13;2.65;;;14.10;99.90;;;;;;5067271;28;20023;-75
2022/10/24 01:41:06;;;;;;;5.28;2.78;;;14.10;99.90;;;;;;5067132;28;20028;-79
2022/10/24 01:43:41;;;;;;;4.75;2.97;;;14.10;99.90;;;;;;5068515;28;20020;-77
2022/10/24 01:46:16;;;;;;;4.47;2.72;;;14.00;99.90;;;;;;5060215;28;20033;-76
2022/10/24 01:48:58;;;;;;;7.43;2.75;;;14.10;99.90;;;;;;5073438;28;20031;-78
2022/10/24 01:51:28;;;;;;;4.68;2.58;;;14.00;99.90;;;;;;5058763;28;20025;-77
2022/10/24 01:53:56;;;;;;;6.60;2.92;;;14.00;99.90;;;;;;5082385;28;20031;-77
2022/10/24 01:56:24;;;;;;;6.00;2.45;;;14.00;99.90;;;;;;5068777;28;20530;-77
2022/10/24 01:58:51;;;;;;;5.93;3.03;;;13.90;99.90;;;;;;5081250;28;20419;-77
2022/10/24 02:01:22;;;;;;;8.38;3.17;;;14.00;99.90;;;;;;5060273;28;20043;-76
2022/10/24 02:03:59;;;;;;;5.32;2.55;;;14.00;99.90;;;;;;5056081;28;20037;-76
2022/10/24 02:06:30;;;;;;;8.52;2.63;;;14.00;99.90;;;;;;5061427;28;20024;-76
2022/10/24 02:09:01;;;;;;;5.40;2.70;;;13.90;99.90;;;;;;5080934;28;20052;-76
2022/10/24 02:11:27;;;;;;;5.65;3.10;;;13.90;99.90;;;;;;5061448;28;20103;-76
2022/10/24 02:14:09;;;;;;;6.15;3.03;;;13.90;99.90;;;;;;5066326;28;20119;-75
2022/10/24 02:16:35;;;;;;;8.15;3.03;;;13.90;99.90;;;;;;5063226;28;20028;-76
2022/10/24 02:19:01;;;;;;;4.30;2.97;;;13.90;99.90;;;;;;5062445;28;20423;-75
2022/10/24 02:21:55;;;;;;;7.35;2.85;;;13.80;99.90;;;;;;5063541;28;20109;-76
2022/10/24 02:24:25;;;;;;;6.35;3.00;;;13.90;99.90;;;;;;5069579;28;20067;-75
2022/10/24 02:27:02;;;;;;;5.68;3.22;;;13.80;99.90;;;;;;5077333;28;20423;-75
2022/10/24 02:29:49;;;;;;;5.00;3.10;;;13.80;99.90;;;;;;5065751;28;20408;-77
2022/10/24 02:32:27;;;;;;;4.65;3.00;;;13.90;99.90;;;;;;5062968;28;20020;-76
2022/10/24 02:34:54;;;;;;;5.72;2.75;;;13.80;99.90;;;;;;5058940;28;20023;-77
2022/10/24 02:37:20;;;;;;;4.05;2.80;;;13.80;99.90;;;;;;5064737;28;20443;-76
2022/10/24 02:39:48;;;;;;;7.75;2.72;;;13.80;99.90;;;;;;5064378;28;20507;-77
2022/10/24 02:42:14;;;;;;;6.63;2.72;;;13.80;99.90;;;;;;5065683;28;20028;-76
2022/10/24 02:44:42;;;;;;;8.93;2.90;;;13.80;99.90;;;;;;5066455;28;20380;-78
2022/10/24 02:47:10;;;;;;;7.40;2.80;;;13.80;99.90;;;;;;5061277;28;20025;-78
2022/10/24 02:49:40;;;;;;;7.10;2.80;;;13.70;99.90;;;;;;5061343;28;20114;-77
2022/10/24 02:52:07;;;;;;;5.38;3.15;;;13.70;99.90;;;;;;5066581;28;20443;-78
2022/10/24 02:54:32;;;;;;;6.82;2.95;;;13.70;99.90;;;;;;5062749;28;20020;-78
2022/10/24 02:57:02;;;;;;;4.07;2.90;;;13.70;99.90;;;;;;5061991;28;20077;-77
2022/10/24 02:59:28;;;;;;;7.53;3.00;;;13.70;99.90;;;;;;5092912;28;20025;-77
2022/10/24 03:01:54;;;;;;;5.43;3.03;;;13.70;99.90;;;;;;5075481;28;20035;-77
2022/10/24 03:04:20;;;;;;;3.63;2.65;;;13.70;99.90;;;;;;5061172;28;20020;-77
2022/10/24 03:06:46;;;;;;;4.75;2.55;;;13.70;99.90;;;;;;5062486;28;20035;-76
2022/10/24 03:09:12;;;;;;;4.63;2.63;;;13.70;99.90;;;;;;5060907;28;20025;-77
2022/10/24 03:11:38;;;;;;;5.55;2.83;;;13.70;99.90;;;;;;5062179;28;20040;-78
2022/10/24 03:14:05;;;;;;;5.47;3.10;;;13.70;99.90;;;;;;5078311;28;20103;-77
2022/10/24 03:16:31;;;;;;;9.35;3.20;;;13.60;99.90;;;;;;5078032;28;20508;-77
2022/10/24 03:18:57;;;;;;;6.18;3.17;;;13.60;99.90;;;;;;5063480;28;20048;-77
2022/10/24 03:21:24;;;;;;;8.82;3.03;;;13.70;99.90;;;;;;5063064;28;20127;-77
2022/10/24 03:23:50;;;;;;;7.22;2.90;;;13.70;99.90;;;;;;5060249;28;20717;-76
2022/10/24 03:26:16;;;;;;;5.25;2.88;;;13.70;99.90;;;;;;5064688;28;20032;-77
2022/10/24 03:28:41;;;;;;;4.97;2.95;;;13.60;99.90;;;;;;5061814;28;20025;-78
2022/10/24 03:31:07;;;;;;;4.93;2.58;;;13.60;99.90;;;;;;5073983;28;20448;-77
2022/10/24 03:33:34;;;;;;;5.65;2.92;;;13.60;99.90;;;;;;5064909;28;20067;-78
2022/10/24 03:36:00;;;;;;;11.65;3.10;;;13.60;99.90;;;;;;5081029;28;20520;-77
2022/10/24 03:38:25;;;;;;;4.63;2.67;;;13.60;99.90;;;;;;5063031;28;20033;-76
2022/10/24 03:40:51;;;;;;;7.32;2.90;;;13.70;99.90;;;;;;5076055;28;20105;-77
2022/10/24 03:43:17;;;;;;;8.07;2.83;;;13.60;99.90;;;;;;5064414;28;20028;-77
2022/10/24 03:45:43;;;;;;;6.25;3.40;;;13.60;99.90;;;;;;5062842;28;20096;-76
2022/10/24 03:48:10;;;;;;;8.13;2.97;;;13.60;99.90;;;;;;5058476;28;20076;-77
2022/10/24 03:50:35;;;;;;;7.63;3.17;;;13.60;99.90;;;;;;5075554;28;20028;-77
2022/10/24 03:53:01;;;;;;;7.25;2.97;;;13.60;99.90;;;;;;5064737;28;20088;-77
2022/10/24 03:55:28;;;;;;;8.05;2.70;;;13.60;99.90;;;;;;5065293;28;20043;-76
2022/10/24 03:57:54;;;;;;;10.15;3.05;;;13.60;99.90;;;;;;5065506;28;20024;-77
2022/10/24 04:00:20;;;;;;;5.22;2.60;;;13.60;99.90;;;;;;5081569;28;20037;-77
2022/10/24 04:02:46;;;;;;;7.93;3.08;;;13.60;99.90;;;;;;5067607;28;20028;-76
2022/10/24 04:05:13;;;;;;;7.53;2.95;;;13.60;99.90;;;;;;5076881;28;20686;-77
2022/10/24 04:07:39;;;;;;;5.60;2.50;;;13.60;99.90;;;;;;5067528;28;20134;-77
2022/10/24 04:10:06;;;;;;;6.75;3.45;;;13.50;99.90;;;;;;5064266;28;20050;-77
2022/10/24 04:12:32;;;;;;;6.20;3.00;;;13.50;99.90;;;;;;5085076;28;20034;-77
2022/10/24 04:14:58;;;;;;;6.07;3.00;;;13.50;99.90;;;;;;5064192;28;20070;-77
2022/10/24 04:17:24;;;;;;;10.10;3.10;;;13.50;99.90;;;;;;5060501;28;20141;-76
2022/10/24 04:19:50;;;;;;;8.35;3.03;;;13.50;99.90;;;;;;5068029;28;20031;-76
2022/10/24 04:22:15;;;;;;;8.73;3.65;;;13.50;99.90;;;;;;5062154;28;20028;-76
2022/10/24 04:24:42;;;;;;;9.38;3.40;;;13.50;99.90;;;;;;5075117;28;20024;-77
2022/10/24 04:27:09;;;;;;;10.10;3.60;;;13.50;99.90;;;;;;5064662;28;20035;-78
2022/10/24 04:29:35;;;;;;;10.18;3.20;;;13.50;99.90;;;;;;5082969;28;20034;-77
2022/10/24 04:32:01;;;;;;;9.25;3.10;;;13.50;99.90;;;;;;5066770;28;20028;-77
2022/10/24 04:34:32;;;;;;;7.25;3.53;;;13.50;99.90;;;;;;5078128;28;20024;-77
2022/10/24 04:36:58;;;;;;;13.77;4.22;;;13.50;99.90;;;;;;5064898;28;20063;-79
2022/10/24 04:39:23;;;;;;;5.50;3.45;;;13.50;99.90;;;;;;5083536;28;20039;-76
2022/10/24 04:41:50;;;;;;;9.27;3.88;;;13.50;99.90;;;;;;5084239;28;20028;-76
2022/10/24 04:44:16;;;;;;;8.23;4.00;;;13.50;99.90;;;;;;5063752;28;20036;-77
2022/10/24 04:46:42;;;;;;;4.78;3.03;;;13.50;99.90;;;;;;5069112;28;20024;-77
2022/10/24 04:49:08;;;;;;;6.45;3.30;;;13.50;99.90;;;;;;5076153;28;20389;-77
2022/10/24 04:51:35;;;;;;;5.88;3.55;;;13.50;99.90;;;;;;5075455;28;20047;-77
2022/10/24 04:54:00;;;;;;;6.43;3.47;;;13.50;99.90;;;;;;5061034;28;20056;-77
2022/10/24 04:56:26;;;;;;;5.68;3.13;;;13.50;99.90;;;;;;5077782;28;20059;-76
2022/10/24 04:58:52;;;;;;;6.20;3.30;;;13.50;99.90;;;;;;5080465;28;20074;-76
2022/10/24 05:01:18;;;;;;;9.20;3.50;;;13.50;99.90;;;;;;5081980;28;20073;-78
2022/10/24 05:03:44;;;;;;;5.78;3.50;;;13.50;99.90;;;;;;5083134;28;20029;-77
2022/10/24 05:06:10;;;;;;;7.72;3.28;;;13.50;99.90;;;;;;5067886;28;20056;-78
2022/10/24 05:08:36;;;;;;;8.90;3.67;;;13.50;99.90;;;;;;5071144;28;20469;-77
2022/10/24 05:11:02;;;;;;;13.05;3.88;;;13.50;99.90;;;;;;5062988;28;20036;-76
2022/10/24 05:13:28;;;;;;;9.50;3.60;;;13.60;99.90;;;;;;5065649;28;20033;-76
2022/10/24 05:15:54;;;;;;;11.25;3.58;;;13.60;99.90;;;;;;5060556;28;20377;-76
2022/10/24 05:18:20;;;;;;;8.90;3.85;;;13.60;99.90;;;;;;5083348;28;20032;-77
2022/10/24 05:20:45;;;;;;;7.88;3.20;;;13.60;99.90;;;;;;5068594;28;20145;-78
2022/10/24 05:23:11;;;;;;;6.78;3.70;;;13.60;99.90;;;;;;5060958;28;20119;-77
2022/10/24 05:25:37;;;;;;;7.28;3.55;;;13.70;99.90;;;;;;5062624;28;20020;-79
2022/10/24 05:28:03;;;;;;;10.45;3.92;;;13.70;99.90;;;;;;5054264;28;20028;-76
2022/10/24 05:30:29;;;;;;;9.77;4.50;;;13.70;99.90;;;;;;5050623;28;20036;-79
2022/10/24 05:32:54;;;;;;;8.15;3.47;;;13.70;99.90;;;;;;5045954;28;20032;-77
2022/10/24 05:35:21;;;;;;;17.67;4.22;;;13.70;99.90;;;;;;5059050;28;20028;-78
2022/10/24 05:37:47;;;;;;;9.63;3.28;;;13.70;99.90;;;;;;5049396;28;20039;-77
2022/10/24 05:40:13;;;;;;;9.48;3.72;;;13.70;99.90;;;;;;5053812;28;20024;-77
2022/10/24 05:42:39;;;;;;;8.25;3.35;;;13.70;99.90;;;;;;5062769;28;20032;-76
2022/10/24 05:45:09;;;;;;;8.20;3.55;;;13.80;99.90;;;;;;5064232;28;20077;-77
2022/10/24 05:47:35;;;;;;;9.50;3.50;;;13.80;99.90;;;;;;5061525;28;20039;-77
2022/10/24 05:50:01;;;;;;;8.63;3.78;;;13.80;99.90;;;;;;5059795;28;20032;-77
2022/10/24 05:52:28;;;;;;;9.85;4.38;;;13.80;99.90;;;;;;5066221;28;20432;-77
2022/10/24 05:54:54;;;;;;;8.70;3.47;;;13.90;99.90;;;;;;5083861;28;20099;-76
2022/10/24 05:57:21;;;;;;;8.75;3.10;;;13.90;99.90;;;;;;5080252;28;20119;-76
2022/10/24 05:59:47;;;;;;;7.25;2.88;;;13.90;99.90;;;;;;5079008;28;20065;-78
2022/10/24 06:02:18;;;;;;;7.40;3.22;;;13.90;99.90;;;;;;5072163;28;20028;-77
2022/10/24 06:04:48;;;;;;;6.88;2.65;;;13.90;99.90;;;;;;5089045;28;20035;-77
2022/10/24 06:07:14;;;;;;;6.55;2.85;;;14.00;99.90;;;;;;5057248;28;20078;-77
2022/10/24 06:09:40;;;;;;;8.63;2.95;;;14.00;99.90;;;;;;5064367;28;20028;-79
2022/10/24 06:12:08;;;;;;;4.38;2.97;;;14.00;99.90;;;;;;5080394;28;20427;-76
2022/10/24 06:14:35;;;;;;;7.35;3.28;;;14.00;99.90;;;;;;5077176;28;20020;-83
2022/10/24 06:17:01;;;;;;;12.07;3.30;;;14.00;99.90;;;;;;5078069;28;20047;-76
2022/10/24 06:19:27;;;;;;;7.18;3.25;;;14.00;99.90;;;;;;5076163;28;20024;-78
2022/10/24 06:21:54;;;;;;;8.27;3.22;;;14.00;99.90;;;;;;5073594;28;20023;-77
2022/10/24 06:24:19;;;;;;;10.60;3.55;;;14.00;99.90;;;;;;5066140;28;20554;-77
2022/10/24 06:26:45;;;;;;;6.15;2.83;;;14.00;99.90;;;;;;5077724;28;20024;-76
2022/10/24 06:29:11;;;;;;;9.18;3.30;;;14.00;99.90;;;;;;5074811;28;20116;-76
2022/10/24 06:31:43;;;;;;;5.30;2.88;;;14.00;99.90;;;;;;5066985;28;20151;-78
2022/10/24 06:34:10;;;;;;;7.05;3.30;;;14.00;99.90;;;;;;5057112;28;20052;-76
2022/10/24 06:36:36;;;;;;;5.75;3.28;;;14.00;99.90;;;;;;5056773;28;20116;-76
2022/10/24 06:39:03;;;;;;;10.95;3.85;;;14.00;99.90;;;;;;5069723;28;20124;-78
2022/10/24 06:41:31;;;;;;;7.28;3.42;;;14.00;99.90;;;;;;5071501;28;20020;-77
2022/10/24 06:43:58;;;;;;;9.98;3.47;;;13.90;99.90;;;;;;5072674;28;20404;-79
2022/10/24 06:46:23;;;;;;;8.50;3.70;;;13.90;99.90;;;;;;5061842;28;20031;-78
2022/10/24 06:48:55;;;;;;;11.18;3.65;;;13.90;99.90;;;;;;5060348;28;20021;-77
2022/10/24 06:51:22;;;;;;;8.95;3.58;;;13.90;99.90;;;;;;5079454;28;20059;-79
2022/10/24 06:53:49;;;;;;;8.00;4.20;;;13.90;99.90;;;;;;5065304;28;20423;-78
2022/10/24 06:56:16;;;;;;;9.32;4.20;;;13.80;99.90;;;;;;5078606;28;20039;-77
2022/10/24 06:58:42;;;;;;;9.38;3.47;;;13.90;99.90;;;;;;5070972;28;20131;-78
2022/10/24 07:01:15;;;;;;;8.85;3.60;;;13.90;99.90;;;;;;5075550;28;20028;-78
2022/10/24 07:03:41;;;;;;;6.10;3.58;;;13.80;99.90;;;;;;5074852;28;20105;-77
2022/10/24 07:06:12;;;;;;;7.88;4.07;;;13.80;99.90;;;;;;5073486;28;20112;-77
2022/10/24 07:08:38;;;;;;;10.45;3.40;;;13.90;99.90;;;;;;5090757;28;20028;-77
2022/10/24 07:11:04;;;;;;;12.95;4.22;;;13.90;99.90;;;;;;5077564;28;20031;-77
2022/10/24 07:13:31;;;;;;;10.70;3.88;;;14.00;99.90;;;;;;5076182;28;20059;-80
2022/10/24 07:15:57;;;;;;;7.13;3.50;;;14.00;99.90;;;;;;5061330;28;20027;-77
2022/10/24 07:18:24;;;;;;;6.90;3.50;;;14.00;99.90;;;;;;5062090;28;20088;-79
2022/10/24 07:20:50;;;;;;;8.32;3.60;;;14.00;99.90;;;;;;5063176;28;20042;-76
2022/10/24 07:23:17;;;;;;;9.30;3.58;;;14.00;99.90;;;;;;5077175;28;20344;-76
2022/10/24 07:25:42;;;;;;;11.93;3.33;;;14.10;99.90;;;;;;5073853;28;20656;-77
2022/10/24 07:28:09;;;;;;;8.82;2.97;;;14.10;99.90;;;;;;5076915;28;20086;-77
2022/10/24 07:30:36;;;;;;;9.40;3.53;;;14.10;99.90;;;;;;5080683;28;20073;-76
2022/10/24 07:33:02;;;;;;;7.10;3.50;;;14.10;99.90;;;;;;5083813;28;20032;-78
2022/10/24 07:35:28;;;;;;;8.65;3.25;;;14.10;99.90;;;;;;5083784;28;20024;-78
2022/10/24 07:37:54;;;;;;;7.45;3.25;;;14.20;99.90;;;;;;5084105;28;20081;-76
2022/10/24 07:40:19;;;;;;;9.02;3.33;;;14.20;99.90;;;;;;5065865;28;20032;-78
2022/10/24 07:42:45;;;;;;;8.07;2.90;;;14.20;99.90;;;;;;5069248;28;20028;-76
2022/10/24 07:45:11;;;;;;;11.70;3.33;;;14.20;99.90;;;;;;5082675;28;20507;-76
2022/10/24 07:47:37;;;;;;;11.23;3.55;;;14.20;99.90;;;;;;5067100;28;20020;-79
2022/10/24 07:50:04;;;;;;;6.97;3.00;;;14.30;99.90;;;;;;5067883;28;20543;-75
2022/10/24 07:52:30;;;;;;;7.75;3.55;;;14.30;99.90;;;;;;5084798;28;20118;-77
2022/10/24 07:54:57;;;;;;;10.45;3.65;;;14.40;99.90;;;;;;5083429;28;20079;-77
2022/10/24 07:57:23;;;;;;;6.82;3.10;;;14.40;99.90;;;;;;5065816;28;20028;-77
2022/10/24 07:59:49;;;;;;;8.18;3.38;;;14.40;99.90;;;;;;5082951;28;20104;-77
2022/10/24 08:02:17;;;;;;;10.13;3.72;;;14.50;99.90;;;;;;5071296;28;20036;-76
2022/10/24 08:04:43;;;;;;;6.38;2.90;;;14.50;99.90;;;;;;5065194;28;20115;-79
2022/10/24 08:07:13;;;;;;;10.35;3.35;;;14.60;99.90;;;;;;5082896;28;20107;-77
2022/10/24 08:09:42;;;;;;;7.03;3.45;;;14.60;99.90;;;;;;5083568;28;20024;-80
2022/10/24 08:12:08;;;;;;;16.35;4.35;;;14.70;99.90;;;;;;5085608;28;20115;-78
2022/10/24 08:14:35;;;;;;;5.90;2.88;;;14.70;99.90;;;;;;5085556;28;20016;-77
2022/10/24 08:17:01;;;;;;;12.88;3.25;;;14.70;99.90;;;;;;5067384;28;20400;-77
2022/10/24 08:19:27;;;;;;;11.20;3.15;;;14.70;99.90;;;;;;5081908;28;20563;-78
2022/10/24 08:21:52;;;;;;;7.80;3.05;;;14.80;99.90;;;;;;5071805;28;20012;-77
2022/10/24 08:24:18;;;;;;;11.45;3.13;;;14.80;99.90;;;;;;5071398;28;20121;-77
2022/10/24 08:26:44;;;;;;;8.23;3.10;;;14.90;99.90;;;;;;5082087;28;20028;-77
2022/10/24 08:29:10;;;;;;;8.35;3.08;;;14.90;99.90;;;;;;5066853;28;20093;-76
2022/10/24 08:31:37;;;;;;;10.30;3.00;;;15.00;99.90;;;;;;5064874;28;20027;-78
2022/10/24 08:34:04;;;;;;;3.92;2.70;;;15.00;99.90;;;;;;5067466;28;20115;-77
2022/10/24 08:36:33;;;;;;;12.13;3.17;;;15.00;99.90;;;;;;5063131;28;20032;-78
2022/10/24 08:38:59;;;;;;;13.77;3.42;;;15.00;99.90;;;;;;5068618;28;20116;-78
2022/10/24 08:41:36;;;;;;;8.82;3.03;;;15.10;99.90;;;;;;5084422;28;20025;-77
2022/10/24 08:44:05;;;;;;;10.88;2.85;;;15.10;99.90;;;;;;5080289;28;20031;-76
2022/10/24 08:46:36;;;;;;;8.57;2.95;;;15.10;99.90;;;;;;5085779;28;20495;-76
2022/10/24 08:49:12;;;;;;;10.93;3.17;;;15.20;99.90;;;;;;5081468;28;20473;-76
2022/10/24 08:52:22;;;;;;;9.32;3.10;;;15.20;99.90;;;;;;5070297;28;20028;-74
2022/10/24 08:54:51;;;;;;;8.48;2.65;;;15.40;99.90;;;;;;5063270;28;20123;-75
2022/10/24 08:57:25;;;;;;;9.38;3.05;;;15.50;99.90;;;;;;5064744;28;20032;-75
2022/10/24 08:59:53;;;;;;;5.65;2.63;;;15.50;99.90;;;;;;5078144;28;20024;-76
2022/10/24 09:02:23;;;;;;;9.68;2.53;;;15.60;99.90;;;;;;5079840;28;20044;-77
2022/10/24 09:04:55;;;;;;;9.90;2.53;;;15.60;99.90;;;;;;5086410;28;20024;-75
2022/10/24 09:07:22;;;;;;;7.97;2.72;;;15.60;99.90;;;;;;5059164;28;20027;-76
2022/10/24 09:09:50;;;;;;;8.98;2.28;;;15.70;99.90;;;;;;5064779;28;20056;-76
2022/10/24 09:12:20;;;;;;;6.18;2.22;;;15.80;99.90;;;;;;5068346;28;20484;-78
2022/10/24 09:14:56;;;;;;;7.25;2.28;;;15.80;99.90;;;;;;5063028;28;20032;-77
2022/10/24 09:17:31;;;;;;;6.05;2.42;;;15.80;99.90;;;;;;5075480;28;20024;-76
2022/10/24 09:20:24;;;;;;;5.72;2.80;;;15.90;99.90;;;;;;5080129;28;20111;-77
2022/10/24 09:22:54;;;;;;;10.30;2.67;;;15.90;99.90;;;;;;5086817;28;20052;-77
2022/10/24 09:25:33;;;;;;;9.57;2.45;;;15.90;99.90;;;;;;5079015;28;20024;-76
2022/10/24 09:28:02;;;;;;;6.88;2.50;;;16.00;99.90;;;;;;5084289;28;20035;-76
2022/10/24 09:30:29;;;;;;;6.47;2.58;;;16.10;99.90;;;;;;5063561;28;20028;-76
2022/10/24 09:32:57;;;;;;;9.93;2.83;;;16.20;99.90;;;;;;5078381;28;20055;-76
2022/10/24 09:35:28;;;;;;;10.25;2.58;;;16.30;99.90;;;;;;5065324;28;20024;-81
2022/10/24 09:38:18;;;;;;;7.78;2.90;;;16.30;99.90;;;;;;5081851;28;20043;-76
2022/10/24 09:40:50;;;;;;;10.77;3.15;;;16.40;99.90;;;;;;5082767;28;20027;-79
2022/10/24 09:43:20;;;;;;;6.72;2.20;;;16.40;99.90;;;;;;5062583;28;20068;-76
2022/10/24 09:45:51;;;;;;;13.23;2.30;;;16.50;99.90;;;;;;5064830;28;20052;-77
2022/10/24 09:48:16;;;;;;;;;;;16.50;99.90;;;;;;5077698;28;20045;-76
2022/10/24 09:50:44;;;;;;;9.18;2.10;;;16.40;99.90;;;;;;5081987;28;19997;-77
2022/10/24 09:53:20;;;;;;;6.75;2.03;;;16.40;99.90;;;;;;5085596;28;20054;-73
2022/10/24 09:55:52;;;;;;;14.52;2.70;;;16.50;99.90;;;;;;5085600;28;20027;-75
2022/10/24 09:58:20;;;;;;;10.90;2.67;;;16.60;99.90;;;;;;5083816;28;20504;-75
2022/10/24 10:01:17;;;;;;;11.60;3.15;;;16.60;99.90;;;;;;5078191;28;20028;-74
2022/10/24 10:04:00;;;;;;;4.90;2.15;;;16.80;99.90;;;;;;5082780;28;20081;-74
2022/10/24 10:06:26;;;;;;;7.13;2.33;;;16.90;99.90;;;;;;5082873;28;20157;-74
2022/10/24 10:08:54;;;;;;;5.00;1.92;;;17.00;99.90;;;;;;5082620;28;20111;-74
2022/10/24 10:11:30;;;;;;;10.40;2.28;;;17.10;99.90;;;;;;5085170;28;20128;-75
2022/10/24 10:13:58;;;;;;;6.40;2.25;;;17.40;99.90;;;;;;5083733;28;20020;-76
2022/10/24 10:16:30;;;;;;;10.25;2.45;;;18.00;99.90;;;;;;5080648;28;20031;-76
2022/10/24 10:19:04;;;;;;;6.32;2.08;;;18.90;99.90;;;;;;5062775;28;20507;-77
2022/10/24 10:21:51;;;;;;;4.70;1.92;;;19.30;99.90;;;;;;5068374;28;20114;-76
2022/10/24 10:24:33;;;;;;;5.35;2.05;;;19.90;99.90;;;;;;5068316;28;20038;-77
2022/10/24 10:26:59;;;;;;;7.85;2.30;;;20.30;99.90;;;;;;5069496;28;20445;-76
2022/10/24 10:29:25;;;;;;;11.40;2.10;;;20.50;99.90;;;;;;5067737;28;20021;-77
2022/10/24 10:32:21;;;;;;;7.93;2.20;;;20.30;99.90;;;;;;5081388;28;20891;-78
2022/10/24 10:35:04;;;;;;;7.95;2.00;;;20.00;99.90;;;;;;5066355;28;20021;-77
2022/10/24 10:37:34;;;;;;;6.60;1.80;;;19.80;99.90;;;;;;5090203;28;20028;-76
2022/10/24 10:40:18;;;;;;;7.70;2.30;;;19.80;99.90;;;;;;5073079;28;20073;-80
2022/10/24 10:43:06;;;;;;;9.52;2.17;;;19.60;99.90;;;;;;5086475;28;20115;-77
2022/10/24 10:45:34;;;;;;;8.38;2.10;;;19.50;99.90;;;;;;5078066;28;20024;-80
2022/10/24 10:48:02;;;;;;;6.00;1.80;;;19.40;99.90;;;;;;5077113;28;20032;-82
2022/10/24 10:50:41;;;;;;;7.78;1.80;;;19.40;99.90;;;;;;5086776;28;20048;-82
2022/10/24 10:53:38;;;;;;;7.97;2.13;;;19.30;99.90;;;;;;5063672;28;20036;-81
2022/10/24 10:56:28;;;;;;;7.85;2.22;;;19.20;99.90;;;;;;5077058;28;20059;-81
2022/10/24 10:59:14;;;;;;;9.77;1.90;;;19.00;99.90;;;;;;5061393;28;20024;-81
2022/10/24 11:01:59;;;;;;;8.80;2.15;;;18.80;99.90;;;;;;5097215;28;20480;-81
2022/10/24 11:05:02;;;;;;;7.22;1.88;;;18.60;99.90;;;;;;5081129;28;20021;-81
2022/10/24 11:07:43;;;;;;;5.47;1.70;;;18.50;99.90;;;;;;5086605;28;20103;-82
2022/10/24 11:10:13;;;;;;;5.72;1.73;;;18.40;99.90;;;;;;5064122;28;20029;-81
2022/10/24 11:12:42;;;;;;;9.93;2.05;;;18.30;99.90;;;;;;5086190;28;20026;-81
2022/10/24 11:15:28;;;;;;;6.88;1.77;;;18.20;99.90;;;;;;5065465;28;20036;-82
2022/10/24 11:18:08;;;;;;;7.57;2.28;;;18.20;99.90;;;;;;5083506;28;20028;-84
2022/10/24 11:20:40;;;;;;;9.27;1.70;;;18.20;99.90;;;;;;5069096;28;20035;-82
2022/10/24 11:23:09;;;;;;;6.88;2.13;;;18.20;99.90;;;;;;5086248;28;20036;-82
2022/10/24 11:25:49;;;;;;;9.70;2.00;;;18.30;99.90;;;;;;5080120;28;20021;-80
2022/10/24 11:28:21;;;;;;;4.78;1.73;;;18.20;99.90;;;;;;5084643;28;20864;-81
2022/10/24 11:31:12;;;;;;;4.50;1.65;;;18.20;99.90;;;;;;5078835;28;20025;-81
2022/10/24 11:34:13;;;;;;;6.80;1.38;;;18.20;99.90;;;;;;5038117;28;20058;-78
2022/10/24 11:37:01;;;;;;;7.57;1.95;;;18.20;99.90;;;;;;5062083;28;20043;-82
2022/10/24 11:39:51;;;;;;;5.60;1.73;;;18.20;99.90;;;;;;5052670;28;20043;-81
2022/10/24 11:42:32;;;;;;;6.35;1.52;;;18.10;99.90;;;;;;5050995;28;20427;-80
2022/10/24 11:45:06;;;;;;;4.70;1.25;;;18.00;99.90;;;;;;5031526;28;20396;-80
2022/10/24 11:47:58;;;;;;;3.67;1.45;;;17.90;99.90;;;;;;5058421;28;20055;-81
2022/10/24 11:50:33;;;;;;;8.02;1.70;;;17.90;99.90;;;;;;5054309;28;20717;-81
2022/10/24 11:53:39;;;;;;;9.93;2.22;;;17.80;99.90;;;;;;5046832;28;20043;-81
2022/10/24 11:56:14;;;;;;;82.38;27.60;;;17.80;99.90;;;;;;5038809;28;20063;-83
2022/10/24 11:59:01;;;;;;;11.25;4.63;;;17.80;99.90;;;;;;5052176;28;20047;-79
2022/10/24 12:01:54;;;;;;;62.30;22.73;;;18.00;99.90;;;;;;5046277;28;20032;-82
2022/10/24 12:04:33;;;;;;;11.80;4.30;;;18.10;99.90;;;;;;5064731;28;20512;-79
2022/10/24 12:07:23;;;;;;;21.73;6.97;;;18.00;99.90;;;;;;5037337;28;20024;-81
2022/10/24 12:09:58;;;;;;;23.92;9.02;;;18.10;99.90;;;;;;5053972;28;20096;-79
2022/10/24 12:12:34;;;;;;;7.00;2.08;;;18.20;99.90;;;;;;5091130;28;20034;-79
2022/10/24 12:15:30;;;;;;;5.90;1.85;;;18.00;99.90;;;;;;5092121;28;20032;-79
2022/10/24 12:18:31;;;;;;;380.50;230.07;;;18.00;99.90;;;;;;5086607;28;20021;-82
2022/10/24 12:21:04;;;;;;;98.70;59.75;;;18.10;99.90;;;;;;5094930;28;20402;-83
2022/10/24 12:23:30;;;;;;;274.92;177.70;;;18.10;99.90;;;;;;5083264;28;20024;-81
2022/10/24 12:26:19;;;;;;;127.65;85.95;;;18.20;99.90;;;;;;5078553;28;20035;-82
2022/10/24 12:29:04;;;;;;;12.48;2.92;;;18.20;99.90;;;;;;5095109;28;20079;-83
2022/10/24 12:31:32;;;;;;;10.68;1.80;;;18.10;99.90;;;;;;5094670;28;20488;-82
2022/10/24 12:34:17;;;;;;;3.92;1.30;;;18.10;99.90;;;;;;5092782;28;20035;-84
2022/10/24 12:37:10;;;;;;;6.20;1.75;;;18.00;99.90;;;;;;5082589;28;20055;-81
2022/10/24 12:39:45;;;;;;;5.00;1.67;;;17.90;99.90;;;;;;5074599;28;20052;-81
2022/10/24 12:42:24;;;;;;;4.20;1.52;;;17.90;99.90;;;;;;5086027;28;20024;-81
2022/10/24 12:45:10;;;;;;;6.78;1.92;;;17.90;99.90;;;;;;5092124;28;20023;-81
2022/10/24 12:48:00;;;;;;;5.95;1.70;;;17.80;99.90;;;;;;5088395;28;20442;-82
2022/10/24 12:50:27;;;;;;;4.55;1.60;;;17.70;99.90;;;;;;5103817;28;20032;-82
2022/10/24 12:52:53;;;;;;;8.27;1.90;;;17.70;99.90;;;;;;5094738;28;20044;-82
2022/10/24 12:55:37;;;;;;;4.82;1.17;;;17.70;99.90;;;;;;5105342;28;20032;-79
2022/10/24 12:58:25;;;;;;;6.47;1.10;;;17.70;99.90;;;;;;5090195;28;20031;-81
2022/10/24 13:01:10;;;;;;;7.15;1.42;;;17.80;99.90;;;;;;5075880;28;20028;-80
2022/10/24 13:03:49;;;;;;;4.85;1.33;;;17.80;99.90;;;;;;5091025;28;20031;-82
2022/10/24 13:06:26;;;;;;;4.57;1.55;;;17.90;99.90;;;;;;5079840;28;20051;-79
2022/10/24 13:09:29;;;;;;;6.03;1.35;;;17.90;99.90;;;;;;5097235;28;20544;-79